Time;durP1;ratioP1;P1;durP2;ratioP2;P2;SDS_P1;SDS_P2;PMS_P1;PMS_P2;Temp;Humidity;BMP_temperature;BMP_pressure;BME280_temperature;BME280_humidity;BME280_pressure;Samples;Min_cycle;Max_cycle;Signal;HPM_P1;HPM_P2
2023/08/09 00:00:31;;;;;;;6.07;3.80;;;;;;;18.11;80.53;101348.31;5029898;28;20678;-43
2023/08/09 00:02:57;;;;;;;7.15;3.95;;;;;;;18.05;80.82;101351.03;5034373;28;20037;-46
2023/08/09 00:05:23;;;;;;;7.20;4.00;;;;;;;18.04;80.97;101351.91;5030243;28;20499;-48
2023/08/09 00:07:48;;;;;;;5.72;3.58;;;;;;;18.08;80.48;101350.97;5030606;28;20511;-44
2023/08/09 00:10:13;;;;;;;9.52;3.95;;;;;;;18.10;79.93;101358.00;5029283;28;20049;-43
2023/08/09 00:12:39;;;;;;;10.20;5.07;;;;;;;17.93;80.60;101359.06;5029263;28;20075;-47
2023/08/09 00:15:04;;;;;;;10.02;4.55;;;;;;;17.91;80.85;101359.06;5029252;28;20388;-48
2023/08/09 00:17:30;;;;;;;7.25;4.20;;;;;;;17.97;80.94;101369.56;5029121;28;20041;-45
2023/08/09 00:19:55;;;;;;;6.82;4.07;;;;;;;18.03;80.98;101366.00;5029286;28;20040;-47
2023/08/09 00:22:20;;;;;;;5.97;3.60;;;;;;;18.10;80.84;101359.75;5028611;28;20048;-43
2023/08/09 00:24:46;;;;;;;7.68;3.92;;;;;;;18.12;80.62;101371.16;5029631;28;20557;-48
2023/08/09 00:27:11;;;;;;;7.00;4.40;;;;;;;18.04;81.00;101368.63;5029085;28;20039;-42
2023/08/09 00:29:36;;;;;;;7.80;4.25;;;;;;;18.05;80.88;101372.13;5029360;28;20048;-44
2023/08/09 00:32:02;;;;;;;7.25;4.22;;;;;;;18.02;80.89;101372.16;5029566;28;20029;-45
2023/08/09 00:34:27;;;;;;;7.90;4.20;;;;;;;18.02;80.84;101375.66;5030351;28;20038;-45
2023/08/09 00:36:53;;;;;;;9.30;4.10;;;;;;;18.01;80.52;101373.91;5032805;28;20061;-43
2023/08/09 00:39:18;;;;;;;9.85;4.68;;;;;;;17.87;80.96;101380.22;5031714;28;20029;-44
2023/08/09 00:41:44;;;;;;;8.95;4.80;;;;;;;17.68;81.96;101382.13;5030154;28;20041;-42
2023/08/09 00:44:09;;;;;;;13.13;4.70;;;;;;;17.69;81.96;101381.22;5029116;28;20092;-43
2023/08/09 00:46:35;;;;;;;7.82;4.68;;;;;;;17.74;81.63;101384.72;5029507;28;20038;-48
2023/08/09 00:49:01;;;;;;;7.97;4.05;;;;;;;17.82;81.19;101381.09;5031084;28;20064;-44
2023/08/09 00:51:27;;;;;;;10.02;4.20;;;;;;;17.83;80.98;101380.22;5031172;28;20037;-43
2023/08/09 00:53:52;;;;;;;8.68;4.40;;;;;;;17.82;81.21;101380.22;5038396;28;20292;-44
2023/08/09 00:56:18;;;;;;;8.95;4.72;;;;;;;17.80;81.36;101374.09;5034605;28;20385;-43
2023/08/09 00:58:43;;;;;;;8.73;4.75;;;;;;;17.76;81.69;101382.91;5029336;28;20265;-45
2023/08/09 01:01:09;;;;;;;8.50;4.55;;;;;;;17.83;81.52;101381.97;5028595;28;20045;-47
2023/08/09 01:03:34;;;;;;;8.65;4.10;;;;;;;17.83;81.47;101382.84;5028872;28;20492;-47
2023/08/09 01:06:08;;;;;;;6.97;4.00;;;;;;;17.83;80.52;101393.41;5029091;28;20091;-44
2023/08/09 01:09:04;;;;;;;6.40;3.70;;;;;;;17.81;80.49;101378.47;5028728;28;20042;-45
2023/08/09 01:11:42;;;;;;;7.30;3.80;;;;;;;17.77;80.42;101385.53;5025435;28;20058;-44
2023/08/09 01:14:11;;;;;;;9.95;4.72;;;;;;;17.53;82.04;101385.69;5028162;28;20037;-44
2023/08/09 01:16:37;;;;;;;8.23;4.60;;;;;;;17.55;82.20;101389.22;5029100;28;20059;-44
2023/08/09 01:19:10;;;;;;;8.07;4.57;;;;;;;17.63;81.87;101390.03;5029229;28;20511;-47
2023/08/09 01:21:38;;;;;;;8.20;4.72;;;;;;;17.63;82.08;101391.81;5028909;28;20460;-44
2023/08/09 01:24:05;;;;;;;10.48;4.40;;;;;;;17.68;81.76;101404.09;5028255;28;20045;-45
2023/08/09 01:26:30;;;;;;;8.98;4.72;;;;;;;17.68;81.70;101401.47;5028494;28;20029;-46
2023/08/09 01:28:56;;;;;;;12.73;5.18;;;;;;;17.59;82.06;101398.84;5028938;28;20041;-44
2023/08/09 01:31:21;;;;;;;9.43;4.95;;;;;;;17.57;82.20;101390.06;5028550;28;20026;-45
2023/08/09 01:33:47;;;;;;;9.43;4.68;;;;;;;17.66;81.80;101392.66;5031811;28;20158;-44
2023/08/09 01:36:21;;;;;;;10.23;4.80;;;;;;;17.68;81.65;101392.66;5030713;28;20072;-45
2023/08/09 01:38:57;;;;;;;8.70;4.70;;;;;;;17.52;82.41;101394.47;5032481;28;20061;-50
2023/08/09 01:41:22;;;;;;;9.52;4.47;;;;;;;17.62;82.18;101398.88;5031799;28;20507;-44
2023/08/09 01:43:48;;;;;;;10.55;4.50;;;;;;;17.67;81.49;101396.19;5030415;28;20087;-46
2023/08/09 01:46:14;;;;;;;9.02;4.53;;;;;;;17.65;81.39;101404.09;5031773;28;20037;-44
2023/08/09 01:48:40;;;;;;;7.32;3.95;;;;;;;17.67;81.06;101397.06;5032714;28;20503;-44
2023/08/09 01:51:05;;;;;;;7.70;4.28;;;;;;;17.65;80.93;101397.94;5032139;28;20048;-48
2023/08/09 01:53:31;;;;;;;6.68;3.90;;;;;;;17.62;80.62;101404.13;5033146;28;20496;-45
2023/08/09 01:55:56;;;;;;;7.30;4.10;;;;;;;17.61;80.77;101396.22;5033391;28;20120;-47
2023/08/09 01:58:21;;;;;;;6.55;3.40;;;;;;;17.59;80.60;101401.47;5033922;28;20048;-46
2023/08/09 02:00:47;;;;;;;7.60;3.60;;;;;;;17.58;80.62;101399.72;5034416;28;20566;-44
2023/08/09 02:03:12;;;;;;;6.38;3.40;;;;;;;17.58;80.67;101399.72;5032977;28;20045;-47
2023/08/09 02:05:41;;;;;;;6.60;3.60;;;;;;;17.54;80.51;101408.53;5031447;28;20037;-44
2023/08/09 02:08:06;;;;;;;7.80;3.63;;;;;;;17.56;80.51;101416.44;5033614;28;20061;-49
2023/08/09 02:10:32;;;;;;;6.65;3.47;;;;;;;17.55;80.67;101415.56;5035180;28;20072;-43
2023/08/09 02:12:57;;;;;;;6.80;3.30;;;;;;;17.56;80.74;101419.09;5034352;28;20456;-46
2023/08/09 02:15:23;;;;;;;6.43;3.67;;;;;;;17.55;80.83;101419.97;5033825;28;20033;-46
2023/08/09 02:17:51;;;;;;;6.28;3.70;;;;;;;17.57;80.75;101429.59;5032306;28;20053;-43
2023/08/09 02:20:19;;;;;;;7.30;3.85;;;;;;;17.60;80.81;101416.44;5031278;28;20108;-45
2023/08/09 02:22:45;;;;;;;9.77;4.47;;;;;;;17.58;81.32;101425.22;5031111;28;20511;-50
2023/08/09 02:25:12;;;;;;;7.68;4.10;;;;;;;17.59;81.20;101426.97;5031063;28;20041;-43
2023/08/09 02:27:39;;;;;;;7.32;3.85;;;;;;;17.61;81.21;101422.59;5035076;28;20044;-46
2023/08/09 02:30:06;;;;;;;6.45;3.60;;;;;;;17.63;80.95;101431.34;5034444;28;20045;-45
2023/08/09 02:32:33;;;;;;;6.72;3.40;;;;;;;17.64;80.90;101434.00;5030811;28;20084;-45
2023/08/09 02:34:59;;;;;;;8.38;3.60;;;;;;;17.64;80.70;101436.63;5030894;28;20047;-45
2023/08/09 02:37:25;;;;;;;7.25;3.55;;;;;;;17.62;80.67;101438.41;5030938;28;21022;-45
2023/08/09 02:39:50;;;;;;;5.88;3.30;;;;;;;17.61;80.47;101444.56;5030983;28;20044;-49
2023/08/09 02:42:16;;;;;;;5.78;3.10;;;;;;;17.59;80.45;101440.16;5030446;28;20038;-46
2023/08/09 02:44:42;;;;;;;8.18;3.58;;;;;;;17.58;80.70;101441.91;5029735;28;20511;-44
2023/08/09 02:47:08;;;;;;;5.75;3.50;;;;;;;17.59;80.72;101440.16;5030716;28;20034;-44
2023/08/09 02:49:33;;;;;;;5.18;3.22;;;;;;;17.62;80.73;101446.31;5030718;28;20833;-48
2023/08/09 02:51:59;;;;;;;7.22;3.78;;;;;;;17.62;80.90;101443.69;5030991;28;20037;-45
2023/08/09 02:54:24;;;;;;;5.95;3.42;;;;;;;17.64;80.96;101446.28;5030362;28;20137;-46
2023/08/09 02:56:50;;;;;;;6.03;3.60;;;;;;;17.64;80.61;101449.81;5031605;28;20087;-44
2023/08/09 02:59:15;;;;;;;7.13;3.40;;;;;;;17.66;81.12;101452.44;5030665;28;20088;-46
2023/08/09 03:01:41;;;;;;;6.78;3.40;;;;;;;17.69;80.88;101449.75;5030864;28;20037;-46
2023/08/09 03:04:06;;;;;;;7.28;3.92;;;;;;;17.61;81.67;101452.47;5030726;28;20116;-44
2023/08/09 03:06:32;;;;;;;8.52;3.90;;;;;;;17.65;81.46;101455.97;5031635;28;20087;-43
2023/08/09 03:08:57;;;;;;;8.00;3.65;;;;;;;17.69;81.21;101458.56;5031521;28;20042;-41
2023/08/09 03:11:24;;;;;;;5.93;3.33;;;;;;;17.70;81.00;101455.03;5030093;28;20136;-45
2023/08/09 03:13:51;;;;;;;6.75;3.53;;;;;;;17.70;81.05;101460.31;5030209;28;20033;-46
2023/08/09 03:16:18;;;;;;;7.65;4.00;;;;;;;17.67;81.51;101460.34;5030617;28;20180;-44
2023/08/09 03:18:43;;;;;;;7.00;4.00;;;;;;;17.73;81.13;101456.78;5030929;28;20120;-45
2023/08/09 03:21:09;;;;;;;8.77;4.25;;;;;;;17.68;81.65;101459.47;5030450;28;20128;-43
2023/08/09 03:23:35;;;;;;;6.97;3.80;;;;;;;17.75;81.40;101460.28;5030511;28;20044;-45
2023/08/09 03:26:00;;;;;;;8.25;3.90;;;;;;;17.76;81.26;101462.03;5030731;28;20407;-43
2023/08/09 03:28:27;;;;;;;6.40;3.60;;;;;;;17.76;81.11;101462.03;5030308;28;20037;-48
2023/08/09 03:30:53;;;;;;;9.32;3.70;;;;;;;17.75;81.03;101460.28;5030441;28;20045;-44
2023/08/09 03:33:18;;;;;;;5.63;3.22;;;;;;;17.73;80.94;101468.22;5029904;28;20043;-47
2023/08/09 03:35:44;;;;;;;7.93;3.58;;;;;;;17.71;80.98;101464.72;5030664;28;20090;-43
2023/08/09 03:38:10;;;;;;;7.57;3.75;;;;;;;17.70;80.77;101470.88;5030603;28;20036;-46
2023/08/09 03:40:35;;;;;;;6.95;3.72;;;;;;;17.66;80.75;101461.22;5033069;28;20631;-44
2023/08/09 03:43:01;;;;;;;7.35;3.58;;;;;;;17.67;80.79;101468.25;5033201;28;20029;-46
2023/08/09 03:45:26;;;;;;;6.68;3.53;;;;;;;17.72;80.62;101473.50;5033032;28;20128;-45
2023/08/09 03:47:52;;;;;;;8.88;3.95;;;;;;;17.73;80.74;101472.63;5030770;28;20036;-46
2023/08/09 03:50:18;;;;;;;8.32;3.95;;;;;;;17.76;80.49;101481.38;5029970;28;20045;-43
2023/08/09 03:52:44;;;;;;;7.90;4.28;;;;;;;17.75;80.64;101492.81;5036062;28;20045;-47
2023/08/09 03:55:10;;;;;;;9.15;4.82;;;;;;;17.76;80.76;101491.03;5035125;28;20407;-47
2023/08/09 03:57:36;;;;;;;9.57;4.63;;;;;;;17.78;80.52;101490.16;5031533;28;20040;-45
2023/08/09 04:00:02;;;;;;;8.93;4.38;;;;;;;17.79;80.46;101489.28;5029745;28;20061;-43
2023/08/09 04:02:28;;;;;;;8.32;4.85;;;;;;;17.80;80.69;101493.69;5029211;28;20144;-45
2023/08/09 04:04:53;;;;;;;10.48;4.93;;;;;;;17.83;80.68;101498.91;5029984;28;20037;-48
2023/08/09 04:07:19;;;;;;;10.88;4.63;;;;;;;17.83;80.94;101495.41;5029364;28;20116;-47
2023/08/09 04:09:44;;;;;;;11.27;5.15;;;;;;;17.88;80.94;101498.00;5029518;28;20049;-46
2023/08/09 04:12:10;;;;;;;11.15;4.90;;;;;;;17.92;80.80;101499.75;5028930;28;20033;-46
2023/08/09 04:14:35;;;;;;;10.07;5.55;;;;;;;17.89;81.14;101510.31;5029054;28;20136;-46
2023/08/09 04:17:01;;;;;;;9.63;5.10;;;;;;;17.89;81.50;101507.66;5029444;28;20128;-50
2023/08/09 04:19:29;;;;;;;13.00;5.55;;;;;;;17.88;81.85;101514.69;5029313;28;20033;-45
2023/08/09 04:21:54;;;;;;;10.35;5.40;;;;;;;17.92;81.58;101524.38;5029682;28;20518;-50
2023/08/09 04:24:20;;;;;;;10.10;5.13;;;;;;;17.98;81.59;101526.97;5028375;28;20041;-44
2023/08/09 04:26:46;;;;;;;11.77;5.78;;;;;;;18.01;81.22;101521.66;5029271;28;20116;-45
2023/08/09 04:29:11;;;;;;;11.10;5.22;;;;;;;18.10;81.04;101524.25;5028765;28;20120;-46
2023/08/09 04:31:39;;;;;;;12.00;6.10;;;;;;;18.13;81.09;101520.69;5029270;28;20518;-44
2023/08/09 04:34:05;;;;;;;13.63;6.07;;;;;;;18.17;81.24;101518.03;5028752;28;20617;-44
2023/08/09 04:36:31;;;;;;;10.13;5.30;;;;;;;18.27;81.49;101528.50;5029347;28;20041;-46
2023/08/09 04:38:57;;;;;;;16.52;6.57;;;;;;;18.32;81.80;101526.69;5030084;28;20471;-45
2023/08/09 04:41:22;;;;;;;14.27;6.57;;;;;;;18.41;81.74;101521.38;5029530;28;20061;-46
2023/08/09 04:43:48;;;;;;;14.80;6.88;;;;;;;18.39;82.14;101525.78;5028751;28;20068;-45
2023/08/09 04:46:14;;;;;;;13.27;6.10;;;;;;;18.52;82.13;101527.44;5029847;28;20095;-45
2023/08/09 04:48:42;;;;;;;14.50;6.70;;;;;;;18.60;82.17;101529.13;5030410;28;20068;-44
2023/08/09 04:51:08;;;;;;;13.35;6.32;;;;;;;18.72;82.43;101530.81;5029089;28;20061;-42
2023/08/09 04:53:35;;;;;;;13.93;6.78;;;;;;;18.81;82.26;101524.53;5028707;28;20045;-46
2023/08/09 04:56:00;;;;;;;12.45;6.20;;;;;;;18.93;82.07;101524.41;5029234;28;20033;-47
2023/08/09 04:58:25;;;;;;;11.38;5.90;;;;;;;19.01;81.96;101530.50;5028958;28;20103;-44
2023/08/09 05:00:51;;;;;;;11.75;6.97;;;;;;;19.08;81.99;101534.81;5029110;28;20048;-47
2023/08/09 05:03:16;;;;;;;13.88;6.90;;;;;;;18.93;81.44;101535.84;5028168;28;20044;-47
2023/08/09 05:05:41;;;;;;;14.38;7.03;;;;;;;19.02;81.68;101534.88;5029088;28;20051;-46
2023/08/09 05:08:07;;;;;;;13.90;6.80;;;;;;;19.16;81.69;101535.59;5031890;28;20037;-47
2023/08/09 05:10:34;;;;;;;13.00;7.35;;;;;;;19.05;81.23;101541.00;5032506;28;20037;-47
2023/08/09 05:12:59;;;;;;;12.80;7.45;;;;;;;19.03;81.46;101545.41;5032277;28;20033;-46
2023/08/09 05:15:24;;;;;;;12.25;7.30;;;;;;;19.19;81.19;101534.69;5032173;28;20080;-43
2023/08/09 05:17:50;;;;;;;11.77;6.70;;;;;;;19.25;81.03;101540.78;5032941;28;20092;-44
2023/08/09 05:20:16;;;;;;;13.13;7.20;;;;;;;19.33;80.86;101538.91;5032422;28;20038;-47
2023/08/09 05:22:41;;;;;;;12.73;7.45;;;;;;;19.34;80.58;101542.44;5032518;28;20048;-47
2023/08/09 05:25:07;;;;;;;11.68;7.25;;;;;;;19.23;80.35;101539.03;5032357;28;20507;-45
2023/08/09 05:27:33;;;;;;;11.93;7.13;;;;;;;19.34;80.16;101539.78;5032979;28;20043;-41
2023/08/09 05:29:58;;;;;;;12.88;7.63;;;;;;;19.35;80.31;101547.72;5032582;28;20052;-46
2023/08/09 05:32:23;;;;;;;10.45;7.10;;;;;;;19.36;80.04;101546.81;5031521;28;20029;-47
2023/08/09 05:34:48;;;;;;;12.25;7.50;;;;;;;19.36;80.23;101544.19;5032422;28;20083;-44
2023/08/09 05:37:14;;;;;;;12.05;7.40;;;;;;;19.10;79.77;101554.16;5031947;28;20041;-49
2023/08/09 05:39:39;;;;;;;11.05;7.25;;;;;;;19.25;79.29;101554.00;5032802;28;20059;-46
2023/08/09 05:42:05;;;;;;;12.13;7.30;;;;;;;19.12;79.78;101562.97;5032816;28;20124;-44
2023/08/09 05:44:30;;;;;;;11.90;7.30;;;;;;;19.24;79.79;101561.94;5032258;28;20029;-47
2023/08/09 05:46:56;;;;;;;12.18;7.25;;;;;;;19.30;79.80;101562.75;5035866;28;20038;-44
2023/08/09 05:49:22;;;;;;;12.10;6.80;;;;;;;19.37;79.43;101564.44;5036744;28;20881;-45
2023/08/09 05:51:47;;;;;;;12.15;7.13;;;;;;;19.36;79.54;101570.63;5034484;28;20056;-46
2023/08/09 05:54:12;;;;;;;10.43;6.50;;;;;;;19.49;79.49;101581.97;5031077;28;20458;-46
2023/08/09 05:56:38;;;;;;;10.48;6.30;;;;;;;19.63;79.96;101579.16;5032258;28;20061;-43
2023/08/09 05:59:04;;;;;;;10.85;6.47;;;;;;;19.78;79.98;101579.81;5032150;28;20026;-44
2023/08/09 06:01:29;;;;;;;10.20;6.38;;;;;;;20.39;80.19;101588.66;5031473;28;20036;-46
2023/08/09 06:03:55;;;;;;;9.05;5.90;;;;;;;20.78;76.77;101584.50;5031740;28;20033;-45
2023/08/09 06:06:22;;;;;;;7.32;5.60;;;;;;;20.95;74.94;101587.72;5031483;28;20033;-45
2023/08/09 06:08:48;;;;;;;9.65;5.88;;;;;;;20.92;75.82;101591.28;5032191;28;20536;-45
2023/08/09 06:11:13;;;;;;;6.88;5.28;;;;;;;21.63;74.31;101580.25;5031199;28;20037;-45
2023/08/09 06:13:39;;;;;;;8.35;5.03;;;;;;;22.40;70.50;101581.16;5031371;28;20026;-45
2023/08/09 06:16:04;;;;;;;8.40;5.07;;;;;;;22.89;67.73;101578.16;5031806;28;20033;-48
2023/08/09 06:18:30;;;;;;;7.40;5.15;;;;;;;23.73;63.90;101576.69;5032159;28;20033;-48
2023/08/09 06:20:55;;;;;;;7.15;5.07;;;;;;;24.74;62.33;101590.38;5032139;28;20030;-46
2023/08/09 06:23:21;;;;;;;8.63;5.30;;;;;;;25.16;59.02;101585.38;5030880;28;20060;-48
2023/08/09 06:25:47;;;;;;;9.90;5.10;;;;;;;24.96;55.90;101596.75;5030265;28;20507;-44
2023/08/09 06:28:13;;;;;;;8.25;4.80;;;;;;;24.84;57.67;101598.91;5031275;28;20034;-48
2023/08/09 06:30:38;;;;;;;10.15;5.47;;;;;;;24.69;58.93;101597.66;5032117;28;20037;-43
2023/08/09 06:33:04;;;;;;;8.70;5.30;;;;;;;25.30;57.61;101588.44;5030540;28;20060;-43
2023/08/09 06:35:30;;;;;;;7.30;5.32;;;;;;;25.64;54.96;101589.88;5035927;28;20591;-45
2023/08/09 06:37:55;;;;;;;6.28;5.15;;;;;;;25.54;55.85;101594.66;5038136;28;20031;-45
2023/08/09 06:40:20;;;;;;;7.20;5.45;;;;;;;25.46;56.92;101594.94;5034308;28;20095;-50
2023/08/09 06:42:46;;;;;;;9.65;5.30;;;;;;;26.13;55.92;101602.19;5030896;28;20034;-44
2023/08/09 06:45:11;;;;;;;7.05;5.18;;;;;;;26.54;52.97;101603.22;5030377;28;20516;-50
2023/08/09 06:47:37;;;;;;;7.47;5.13;;;;;;;26.86;52.22;101607.22;5031190;28;20116;-43
2023/08/09 06:50:06;;;;;;;7.80;4.88;;;;;;;26.04;53.98;101599.91;5030883;28;20443;-45
2023/08/09 06:52:36;;;;;;;9.30;5.00;;;;;;;25.56;55.79;101597.25;5030307;28;20045;-50
2023/08/09 06:55:02;;;;;;;9.32;5.32;;;;;;;24.86;59.38;101611.28;5031007;28;20055;-44
2023/08/09 06:57:27;;;;;;;7.82;4.97;;;;;;;24.89;60.58;101605.88;5030848;28;20399;-46
2023/08/09 06:59:53;;;;;;;7.05;5.25;;;;;;;25.28;58.10;101624.09;5031303;28;20026;-44
2023/08/09 07:02:20;;;;;;;6.88;4.97;;;;;;;25.60;58.17;101613.16;5030961;28;20029;-49
2023/08/09 07:04:45;;;;;;;10.35;4.90;;;;;;;26.15;57.69;101614.59;5030812;28;20029;-47
2023/08/09 07:07:11;;;;;;;5.90;4.55;;;;;;;26.44;54.17;101615.25;5030061;28;20029;-45
2023/08/09 07:09:36;;;;;;;7.07;4.97;;;;;;;26.54;54.36;101611.25;5031228;28;20040;-49
2023/08/09 07:12:02;;;;;;;8.52;4.60;;;;;;;26.80;53.83;101616.38;5030765;28;20061;-46
2023/08/09 07:14:27;;;;;;;7.03;3.90;;;;;;;27.56;51.79;101605.06;5029739;28;20057;-44
2023/08/09 07:16:52;;;;;;;6.97;4.13;;;;;;;26.52;54.77;101615.81;5031024;28;20033;-46
2023/08/09 07:19:18;;;;;;;6.80;4.55;;;;;;;26.99;52.17;101617.38;5030498;28;20025;-43
2023/08/09 07:21:43;;;;;;;8.57;4.75;;;;;;;26.53;53.20;101617.56;5031018;28;20029;-48
2023/08/09 07:24:08;;;;;;;10.05;4.72;;;;;;;26.24;55.58;101621.38;5029474;28;20029;-46
2023/08/09 07:26:34;;;;;;;8.20;4.75;;;;;;;26.02;57.12;101612.44;5030598;28;20041;-46
2023/08/09 07:29:00;;;;;;;7.10;5.00;;;;;;;25.99;56.83;101612.53;5030178;28;20030;-46
2023/08/09 07:31:26;;;;;;;9.02;5.00;;;;;;;25.78;57.52;101617.81;5030427;28;20045;-46
2023/08/09 07:33:51;;;;;;;6.88;4.80;;;;;;;25.67;57.55;101616.47;5030017;28;20025;-46
2023/08/09 07:36:17;;;;;;;6.20;4.20;;;;;;;26.01;56.41;101616.91;5030423;28;20034;-44
2023/08/09 07:38:43;;;;;;;4.72;3.42;;;;;;;26.88;55.61;101622.34;5031932;28;20116;-43
2023/08/09 07:41:09;;;;;;;4.93;3.45;;;;;;;26.40;54.91;101616.31;5031681;28;20033;-47
2023/08/09 07:43:35;;;;;;;7.10;3.22;;;;;;;25.24;56.65;101626.00;5032320;28;20021;-47
2023/08/09 07:46:04;;;;;;;8.20;3.47;;;;;;;24.04;61.76;101634.34;5031719;28;20037;-48
2023/08/09 07:48:30;;;;;;;6.13;3.47;;;;;;;22.59;67.83;101651.56;5031988;28;20561;-45
2023/08/09 07:50:55;;;;;;;6.70;3.40;;;;;;;22.26;69.03;101661.16;5034023;28;20045;-46
2023/08/09 07:53:21;;;;;;;8.00;3.33;;;;;;;22.31;68.67;101661.09;5034890;28;20040;-47
2023/08/09 07:55:46;;;;;;;8.88;3.78;;;;;;;22.03;69.41;101657.25;5032940;28;20523;-44
2023/08/09 07:58:11;;;;;;;8.73;3.95;;;;;;;21.90;69.77;101661.06;5030926;28;20412;-46
2023/08/09 08:00:37;;;;;;;6.72;3.90;;;;;;;21.55;71.80;101665.28;5029386;28;20038;-46
2023/08/09 08:03:03;;;;;;;5.18;3.33;;;;;;;22.11;71.37;101661.53;5029299;28;20036;-45
2023/08/09 08:05:29;;;;;;;7.90;3.70;;;;;;;22.70;68.66;101674.34;5029617;28;20025;-43
2023/08/09 08:07:55;;;;;;;6.50;3.30;;;;;;;24.44;65.46;101668.69;5028844;28;20042;-47
2023/08/09 08:10:20;;;;;;;5.82;2.90;;;;;;;25.98;59.12;101661.59;5029453;28;20061;-45
2023/08/09 08:12:48;;;;;;;9.55;3.28;;;;;;;26.28;55.50;101659.56;5029147;28;20056;-46
2023/08/09 08:15:15;;;;;;;7.15;3.38;;;;;;;25.11;57.56;101674.53;5029122;28;20029;-49
2023/08/09 08:17:41;;;;;;;4.70;3.00;;;;;;;24.21;60.76;101677.41;5029717;28;20037;-46
2023/08/09 08:20:10;;;;;;;4.55;3.25;;;;;;;23.71;62.35;101679.72;5029277;28;20064;-46
2023/08/09 08:22:36;;;;;;;9.70;3.47;;;;;;;22.90;64.43;101693.38;5029293;28;20032;-49
2023/08/09 08:25:02;;;;;;;7.95;3.47;;;;;;;22.53;66.53;101688.91;5029744;28;20063;-44
2023/08/09 08:27:27;;;;;;;5.43;3.20;;;;;;;22.72;66.63;101696.44;5029518;28;20032;-44
2023/08/09 08:29:55;;;;;;;5.10;3.13;;;;;;;23.33;64.79;101693.16;5030022;28;20044;-42
2023/08/09 08:32:20;;;;;;;8.25;3.30;;;;;;;23.03;65.29;101694.81;5029535;28;20099;-44
2023/08/09 08:34:47;;;;;;;6.45;3.00;;;;;;;22.66;65.88;101693.03;5029524;28;20034;-43
2023/08/09 08:37:12;;;;;;;9.90;3.15;;;;;;;22.62;64.68;101691.38;5028599;28;20034;-45
2023/08/09 08:39:38;;;;;;;8.68;3.28;;;;;;;21.97;65.60;101695.44;5029173;28;20057;-46
2023/08/09 08:42:04;;;;;;;6.75;3.05;;;;;;;21.94;65.33;101700.81;5032786;28;20167;-47
2023/08/09 08:44:29;;;;;;;10.02;3.50;;;;;;;21.64;65.82;101704.94;5032609;28;20052;-47
2023/08/09 08:46:54;;;;;;;7.22;3.17;;;;;;;22.20;65.39;101710.91;5033625;28;20079;-44
2023/08/09 08:49:24;;;;;;;6.68;3.60;;;;;;;22.32;63.39;101707.13;5033236;28;20124;-46
2023/08/09 08:51:54;;;;;;;7.97;3.42;;;;;;;22.75;62.92;101713.22;5033509;28;20030;-47
2023/08/09 08:54:19;;;;;;;7.97;2.95;;;;;;;23.20;63.21;101713.00;5032749;28;20033;-49
2023/08/09 08:56:47;;;;;;;8.98;3.17;;;;;;;22.86;62.96;101716.53;5034669;28;20180;-43
2023/08/09 08:59:13;;;;;;;4.95;2.85;;;;;;;23.31;63.50;101716.25;5034113;28;20037;-44
2023/08/09 09:01:39;;;;;;;6.72;3.00;;;;;;;22.60;64.23;101714.44;5033526;28;20044;-45
2023/08/09 09:04:04;;;;;;;6.13;3.00;;;;;;;23.10;63.89;101727.47;5032462;28;20034;-45
2023/08/09 09:06:30;;;;;;;5.88;3.10;;;;;;;22.91;63.08;101732.34;5032534;28;20041;-48
2023/08/09 09:08:56;;;;;;;4.88;2.88;;;;;;;23.32;62.03;101721.56;5033230;28;20061;-41
2023/08/09 09:11:22;;;;;;;6.47;3.00;;;;;;;23.78;59.92;101723.03;5032751;28;20071;-47
2023/08/09 09:13:50;;;;;;;7.72;3.05;;;;;;;22.81;62.34;101723.72;5032553;28;20042;-45
2023/08/09 09:16:17;;;;;;;8.57;3.10;;;;;;;22.67;61.33;101725.81;5032739;28;20495;-40
2023/08/09 09:18:45;;;;;;;5.53;2.80;;;;;;;22.82;60.29;101730.78;5033407;28;20070;-48
2023/08/09 09:21:11;;;;;;;8.65;2.60;;;;;;;22.60;61.20;101719.75;5032736;28;20032;-48
2023/08/09 09:23:38;;;;;;;3.80;2.40;;;;;;;22.76;62.76;101725.59;5033197;28;20423;-44
2023/08/09 09:26:03;;;;;;;7.28;2.30;;;;;;;22.79;63.57;101722.88;5034891;28;20120;-46
2023/08/09 09:28:29;;;;;;;7.45;2.13;;;;;;;22.58;61.76;101715.38;5035541;28;20049;-47
2023/08/09 09:30:57;;;;;;;6.80;1.80;;;;;;;22.33;61.89;101722.13;5034691;28;20038;-44
2023/08/09 09:33:34;;;;;;;4.65;2.45;;;;;;;22.53;62.99;101718.13;5031739;28;20499;-49
2023/08/09 09:36:01;;;;;;;5.45;2.05;;;;;;;22.72;62.53;101723.03;5034106;28;20160;-43
2023/08/09 09:38:27;;;;;;;5.40;2.00;;;;;;;22.95;61.75;101726.03;5036173;28;20059;-46
2023/08/09 09:40:52;;;;;;;4.97;2.00;;;;;;;22.42;61.01;101719.28;5035090;28;20029;-45
2023/08/09 09:43:17;;;;;;;5.95;1.83;;;;;;;22.47;61.86;101718.28;5031511;28;20136;-49
2023/08/09 09:45:43;;;;;;;5.75;2.13;;;;;;;22.50;61.34;101714.69;5032246;28;20091;-47
2023/08/09 09:48:20;;;;;;;6.70;2.38;;;;;;;22.72;61.73;101733.66;5031915;28;20033;-48
2023/08/09 09:50:47;;;;;;;6.85;2.03;;;;;;;22.76;61.75;101738.91;5031774;28;20041;-44
2023/08/09 09:53:13;;;;;;;6.93;1.90;;;;;;;22.81;60.66;101744.13;5028608;28;20387;-44
2023/08/09 09:55:40;;;;;;;4.60;2.05;;;;;;;22.68;59.60;101743.50;5032181;28;20049;-44
2023/08/09 09:58:06;;;;;;;3.80;2.00;;;;;;;22.71;59.13;101743.41;5032113;28;20041;-45
2023/08/09 10:00:32;;;;;;;6.85;2.20;;;;;;;22.58;58.88;101742.81;5031873;28;20033;-44
2023/08/09 10:02:59;;;;;;;9.20;2.10;;;;;;;23.30;57.40;101751.75;5031733;28;20033;-46
2023/08/09 10:05:39;;;;;;;5.82;2.20;;;;;;;23.27;57.78;101758.06;5031486;28;20060;-44
2023/08/09 10:08:07;;;;;;;11.43;3.40;;;;;;;23.33;58.24;101762.34;5031903;28;20030;-46
2023/08/09 10:10:33;;;;;;;9.70;2.42;;;;;;;23.61;57.60;101759.84;5031328;28;20758;-44
2023/08/09 10:13:01;;;;;;;7.18;2.00;;;;;;;22.47;58.07;101759.91;5031262;28;20033;-49
2023/08/09 10:15:29;;;;;;;8.18;2.25;;;;;;;22.76;58.88;101777.91;5031288;28;20026;-47
2023/08/09 10:18:04;;;;;;;8.27;1.90;;;;;;;22.61;58.50;101774.66;5031967;28;20064;-45
2023/08/09 10:20:31;;;;;;;5.53;1.95;;;;;;;23.01;57.87;101776.44;5031462;28;20029;-44
2023/08/09 10:22:58;;;;;;;5.82;1.90;;;;;;;23.04;58.18;101785.22;5030647;28;20034;-46
2023/08/09 10:25:46;;;;;;;4.50;1.60;;;;;;;23.19;57.19;101778.63;5031214;28;20030;-47
2023/08/09 10:28:12;;;;;;;7.13;1.65;;;;;;;23.29;55.84;101790.81;5031176;28;20075;-49
2023/08/09 10:30:49;;;;;;;6.43;1.90;;;;;;;23.44;57.82;101779.78;5031415;28;20452;-46
2023/08/09 10:33:18;;;;;;;5.65;1.65;;;;;;;23.29;55.57;101780.19;5030643;28;20025;-46
2023/08/09 10:35:44;;;;;;;6.10;1.90;;;;;;;22.78;59.32;101790.25;5031469;28;20488;-48
2023/08/09 10:38:14;;;;;;;5.72;1.73;;;;;;;23.19;57.00;101789.28;5031086;28;20033;-46
2023/08/09 10:40:43;;;;;;;4.50;1.92;;;;;;;22.61;57.43;101798.59;5031149;28;20031;-45
2023/08/09 10:43:30;;;;;;;7.43;1.80;;;;;;;22.69;58.03;101806.38;5030433;28;20107;-46
2023/08/09 10:45:56;;;;;;;5.47;1.85;;;;;;;23.01;58.74;101795.03;5031235;28;20064;-44
2023/08/09 10:48:26;;;;;;;6.25;1.80;;;;;;;23.06;58.58;101796.69;5030668;28;20037;-45
2023/08/09 10:51:07;;;;;;;6.18;1.90;;;;;;;23.14;57.66;101790.31;5030996;28;20513;-48
2023/08/09 10:54:04;;;;;;;8.38;1.90;;;;;;;22.92;59.11;101809.44;5028129;28;20029;-46
2023/08/09 10:56:33;;;;;;;5.30;1.80;;;;;;;23.32;57.08;101800.50;5030653;28;20029;-47
2023/08/09 10:59:15;;;;;;;4.25;1.80;;;;;;;23.28;58.00;101802.38;5031432;28;20428;-45
2023/08/09 11:01:42;;;;;;;3.90;1.63;;;;;;;22.96;57.50;101818.22;5031496;28;20044;-42
2023/08/09 11:04:09;;;;;;;7.07;1.92;;;;;;;23.13;56.64;101802.72;5029543;28;20041;-46
2023/08/09 11:06:36;;;;;;;5.63;1.85;;;;;;;22.91;58.07;101820.09;5031701;28;20041;-42
2023/08/09 11:09:08;;;;;;;7.00;1.77;;;;;;;23.18;57.74;101815.91;5031939;28;20038;-46
2023/08/09 11:11:34;;;;;;;16.63;3.42;;;;;;;23.60;56.85;101822.03;5030949;28;20116;-48
2023/08/09 11:14:01;;;;;;;5.07;1.70;;;;;;;23.18;56.54;101822.09;5031038;28;20032;-49
2023/08/09 11:16:27;;;;;;;2.83;1.40;;;;;;;23.66;55.00;101813.88;5029870;28;20087;-45
2023/08/09 11:19:20;;;;;;;4.57;1.60;;;;;;;23.52;54.53;101824.88;5031468;28;20029;-48
2023/08/09 11:21:50;;;;;;;6.53;1.92;;;;;;;23.79;54.49;101829.47;5027845;28;20056;-45